sensor_id;sensor_type;location;lat;lon;timestamp;P1;durP1;ratioP1;P2;durP2;ratioP2
1591;SDS011;789;51.612;7.510;2022-10-14T00:01:20;31.97;;;23.13;;
1591;SDS011;789;51.612;7.510;2022-10-14T00:03:48;29.03;;;23.47;;
1591;SDS011;789;51.612;7.510;2022-10-14T00:06:16;32.27;;;23.60;;
1591;SDS011;789;51.612;7.510;2022-10-14T00:08:44;28.80;;;22.30;;
1591;SDS011;789;51.612;7.510;2022-10-14T00:11:12;29.70;;;23.87;;
1591;SDS011;789;51.612;7.510;2022-10-14T00:13:42;29.50;;;23.70;;
1591;SDS011;789;51.612;7.510;2022-10-14T00:16:14;32.50;;;24.37;;
1591;SDS011;789;51.612;7.510;2022-10-14T00:18:42;29.43;;;23.27;;
1591;SDS011;789;51.612;7.510;2022-10-14T00:21:08;33.40;;;24.57;;
1591;SDS011;789;51.612;7.510;2022-10-14T00:23:36;29.73;;;23.83;;
1591;SDS011;789;51.612;7.510;2022-10-14T00:26:02;27.07;;;23.57;;
1591;SDS011;789;51.612;7.510;2022-10-14T00:28:29;28.93;;;23.47;;
1591;SDS011;789;51.612;7.510;2022-10-14T00:30:58;26.30;;;23.50;;
1591;SDS011;789;51.612;7.510;2022-10-14T00:33:26;30.90;;;22.30;;
1591;SDS011;789;51.612;7.510;2022-10-14T00:35:54;29.20;;;21.80;;
1591;SDS011;789;51.612;7.510;2022-10-14T00:38:22;27.60;;;22.90;;
1591;SDS011;789;51.612;7.510;2022-10-14T00:40:49;35.77;;;24.33;;
1591;SDS011;789;51.612;7.510;2022-10-14T00:43:16;28.20;;;22.60;;
1591;SDS011;789;51.612;7.510;2022-10-14T00:45:44;29.57;;;23.97;;
1591;SDS011;789;51.612;7.510;2022-10-14T00:48:12;30.47;;;23.70;;
1591;SDS011;789;51.612;7.510;2022-10-14T00:50:40;30.30;;;22.43;;
1591;SDS011;789;51.612;7.510;2022-10-14T00:53:09;31.23;;;23.67;;
1591;SDS011;789;51.612;7.510;2022-10-14T00:55:38;31.70;;;21.90;;
1591;SDS011;789;51.612;7.510;2022-10-14T00:58:06;30.90;;;24.00;;
1591;SDS011;789;51.612;7.510;2022-10-14T01:00:34;34.57;;;24.40;;
1591;SDS011;789;51.612;7.510;2022-10-14T01:03:05;31.70;;;24.20;;
1591;SDS011;789;51.612;7.510;2022-10-14T01:05:35;32.10;;;24.23;;
1591;SDS011;789;51.612;7.510;2022-10-14T01:08:10;32.27;;;23.63;;
1591;SDS011;789;51.612;7.510;2022-10-14T01:10:42;34.10;;;23.70;;
1591;SDS011;789;51.612;7.510;2022-10-14T01:13:18;31.20;;;24.33;;
1591;SDS011;789;51.612;7.510;2022-10-14T01:15:53;33.73;;;24.07;;
1591;SDS011;789;51.612;7.510;2022-10-14T01:18:38;36.50;;;25.43;;
1591;SDS011;789;51.612;7.510;2022-10-14T01:21:17;32.73;;;24.40;;
1591;SDS011;789;51.612;7.510;2022-10-14T01:26:58;32.37;;;24.37;;
1591;SDS011;789;51.612;7.510;2022-10-14T01:29:52;36.80;;;25.20;;
1591;SDS011;789;51.612;7.510;2022-10-14T01:32:44;33.63;;;24.00;;
1591;SDS011;789;51.612;7.510;2022-10-14T01:35:20;36.27;;;24.90;;
1591;SDS011;789;51.612;7.510;2022-10-14T01:37:52;38.70;;;23.37;;
1591;SDS011;789;51.612;7.510;2022-10-14T01:40:24;31.50;;;24.93;;
1591;SDS011;789;51.612;7.510;2022-10-14T01:42:56;30.40;;;22.70;;
1591;SDS011;789;51.612;7.510;2022-10-14T01:45:27;37.40;;;25.27;;
1591;SDS011;789;51.612;7.510;2022-10-14T01:47:57;32.50;;;22.53;;
1591;SDS011;789;51.612;7.510;2022-10-14T01:50:25;29.53;;;21.60;;
1591;SDS011;789;51.612;7.510;2022-10-14T01:52:56;33.13;;;23.20;;
1591;SDS011;789;51.612;7.510;2022-10-14T01:55:27;30.70;;;23.37;;
1591;SDS011;789;51.612;7.510;2022-10-14T01:57:57;33.30;;;24.20;;
1591;SDS011;789;51.612;7.510;2022-10-14T02:00:27;34.00;;;23.47;;
1591;SDS011;789;51.612;7.510;2022-10-14T02:02:54;32.03;;;23.63;;
1591;SDS011;789;51.612;7.510;2022-10-14T02:05:21;34.70;;;24.60;;
1591;SDS011;789;51.612;7.510;2022-10-14T02:07:55;29.17;;;23.83;;
1591;SDS011;789;51.612;7.510;2022-10-14T02:10:31;29.40;;;24.03;;
1591;SDS011;789;51.612;7.510;2022-10-14T02:13:11;33.50;;;24.40;;
1591;SDS011;789;51.612;7.510;2022-10-14T02:15:56;32.23;;;23.90;;
1591;SDS011;789;51.612;7.510;2022-10-14T02:18:32;31.07;;;24.77;;
1591;SDS011;789;51.612;7.510;2022-10-14T02:21:06;36.50;;;25.40;;
1591;SDS011;789;51.612;7.510;2022-10-14T02:23:38;37.43;;;25.70;;
1591;SDS011;789;51.612;7.510;2022-10-14T02:26:09;32.20;;;24.87;;
1591;SDS011;789;51.612;7.510;2022-10-14T02:28:37;36.50;;;24.50;;
1591;SDS011;789;51.612;7.510;2022-10-14T02:31:09;35.13;;;25.40;;
1591;SDS011;789;51.612;7.510;2022-10-14T02:33:39;36.47;;;26.57;;
1591;SDS011;789;51.612;7.510;2022-10-14T02:36:10;30.07;;;24.47;;
1591;SDS011;789;51.612;7.510;2022-10-14T02:38:39;31.33;;;25.13;;
1591;SDS011;789;51.612;7.510;2022-10-14T02:41:07;36.83;;;26.43;;
1591;SDS011;789;51.612;7.510;2022-10-14T02:43:39;37.00;;;26.73;;
1591;SDS011;789;51.612;7.510;2022-10-14T02:46:07;35.33;;;25.23;;
1591;SDS011;789;51.612;7.510;2022-10-14T02:48:34;34.77;;;26.90;;
1591;SDS011;789;51.612;7.510;2022-10-14T02:51:00;38.90;;;27.27;;
1591;SDS011;789;51.612;7.510;2022-10-14T02:53:27;38.13;;;26.77;;
1591;SDS011;789;51.612;7.510;2022-10-14T02:55:54;32.27;;;26.80;;
1591;SDS011;789;51.612;7.510;2022-10-14T02:58:21;34.97;;;24.97;;
1591;SDS011;789;51.612;7.510;2022-10-14T03:00:48;37.73;;;27.60;;
1591;SDS011;789;51.612;7.510;2022-10-14T03:03:16;36.27;;;27.90;;
1591;SDS011;789;51.612;7.510;2022-10-14T03:05:42;34.63;;;26.10;;
1591;SDS011;789;51.612;7.510;2022-10-14T03:08:09;32.17;;;25.87;;
1591;SDS011;789;51.612;7.510;2022-10-14T03:10:36;31.90;;;26.63;;
1591;SDS011;789;51.612;7.510;2022-10-14T03:13:03;35.80;;;27.47;;
1591;SDS011;789;51.612;7.510;2022-10-14T03:15:30;35.13;;;26.53;;
1591;SDS011;789;51.612;7.510;2022-10-14T03:17:56;30.97;;;25.87;;
1591;SDS011;789;51.612;7.510;2022-10-14T03:20:24;31.40;;;26.10;;
1591;SDS011;789;51.612;7.510;2022-10-14T03:22:51;33.00;;;26.13;;
1591;SDS011;789;51.612;7.510;2022-10-14T03:25:17;31.70;;;24.47;;
1591;SDS011;789;51.612;7.510;2022-10-14T03:27:44;33.30;;;26.57;;
1591;SDS011;789;51.612;7.510;2022-10-14T03:30:11;30.30;;;24.53;;
1591;SDS011;789;51.612;7.510;2022-10-14T03:32:38;34.07;;;25.77;;
1591;SDS011;789;51.612;7.510;2022-10-14T03:35:05;28.57;;;22.80;;
1591;SDS011;789;51.612;7.510;2022-10-14T03:37:33;30.53;;;25.77;;
1591;SDS011;789;51.612;7.510;2022-10-14T03:40:00;30.30;;;24.50;;
1591;SDS011;789;51.612;7.510;2022-10-14T03:42:27;31.20;;;24.77;;
1591;SDS011;789;51.612;7.510;2022-10-14T03:44:53;29.60;;;24.97;;
1591;SDS011;789;51.612;7.510;2022-10-14T03:47:20;29.70;;;23.00;;
1591;SDS011;789;51.612;7.510;2022-10-14T03:49:47;28.60;;;24.57;;
1591;SDS011;789;51.612;7.510;2022-10-14T03:52:13;29.40;;;24.40;;
1591;SDS011;789;51.612;7.510;2022-10-14T03:54:41;27.23;;;23.23;;
1591;SDS011;789;51.612;7.510;2022-10-14T03:57:08;26.67;;;22.63;;
1591;SDS011;789;51.612;7.510;2022-10-14T03:59:35;29.80;;;23.67;;
1591;SDS011;789;51.612;7.510;2022-10-14T04:02:01;26.60;;;22.63;;
1591;SDS011;789;51.612;7.510;2022-10-14T04:04:28;26.33;;;23.00;;
1591;SDS011;789;51.612;7.510;2022-10-14T04:06:55;27.40;;;22.70;;
1591;SDS011;789;51.612;7.510;2022-10-14T04:09:21;26.57;;;22.57;;
1591;SDS011;789;51.612;7.510;2022-10-14T04:11:50;28.20;;;22.40;;
1591;SDS011;789;51.612;7.510;2022-10-14T04:14:17;28.13;;;22.33;;
1591;SDS011;789;51.612;7.510;2022-10-14T04:16:43;26.27;;;22.80;;
1591;SDS011;789;51.612;7.510;2022-10-14T04:19:10;26.33;;;21.97;;
1591;SDS011;789;51.612;7.510;2022-10-14T04:21:37;25.83;;;22.33;;
1591;SDS011;789;51.612;7.510;2022-10-14T04:24:04;25.07;;;22.33;;
1591;SDS011;789;51.612;7.510;2022-10-14T04:26:31;25.90;;;21.40;;
1591;SDS011;789;51.612;7.510;2022-10-14T04:28:59;23.80;;;21.30;;
1591;SDS011;789;51.612;7.510;2022-10-14T04:31:25;31.70;;;23.67;;
1591;SDS011;789;51.612;7.510;2022-10-14T04:33:52;24.97;;;22.03;;
1591;SDS011;789;51.612;7.510;2022-10-14T04:36:19;27.43;;;23.00;;
1591;SDS011;789;51.612;7.510;2022-10-14T04:38:45;28.30;;;22.83;;
1591;SDS011;789;51.612;7.510;2022-10-14T04:41:12;26.63;;;22.63;;
1591;SDS011;789;51.612;7.510;2022-10-14T04:43:39;28.63;;;23.27;;
1591;SDS011;789;51.612;7.510;2022-10-14T04:46:07;32.37;;;23.83;;
1591;SDS011;789;51.612;7.510;2022-10-14T04:48:33;29.83;;;24.17;;
1591;SDS011;789;51.612;7.510;2022-10-14T04:51:00;26.83;;;23.23;;
1591;SDS011;789;51.612;7.510;2022-10-14T04:53:27;25.10;;;22.30;;
1591;SDS011;789;51.612;7.510;2022-10-14T04:55:53;30.60;;;25.57;;
1591;SDS011;789;51.612;7.510;2022-10-14T04:58:20;28.53;;;23.50;;
1591;SDS011;789;51.612;7.510;2022-10-14T05:00:47;30.67;;;23.70;;
1591;SDS011;789;51.612;7.510;2022-10-14T05:03:15;27.40;;;23.20;;
1591;SDS011;789;51.612;7.510;2022-10-14T05:05:41;28.00;;;24.07;;
1591;SDS011;789;51.612;7.510;2022-10-14T05:08:08;34.80;;;24.70;;
1591;SDS011;789;51.612;7.510;2022-10-14T05:10:35;28.17;;;23.67;;
1591;SDS011;789;51.612;7.510;2022-10-14T05:13:01;27.50;;;24.43;;
1591;SDS011;789;51.612;7.510;2022-10-14T05:15:28;32.03;;;25.77;;
1591;SDS011;789;51.612;7.510;2022-10-14T05:17:55;34.00;;;25.20;;
1591;SDS011;789;51.612;7.510;2022-10-14T05:20:24;27.43;;;23.07;;
1591;SDS011;789;51.612;7.510;2022-10-14T05:22:50;27.27;;;22.33;;
1591;SDS011;789;51.612;7.510;2022-10-14T05:25:17;28.20;;;23.47;;
1591;SDS011;789;51.612;7.510;2022-10-14T05:27:44;32.83;;;24.30;;
1591;SDS011;789;51.612;7.510;2022-10-14T05:30:11;29.00;;;24.77;;
1591;SDS011;789;51.612;7.510;2022-10-14T05:32:38;31.27;;;26.57;;
1591;SDS011;789;51.612;7.510;2022-10-14T05:35:05;30.13;;;21.33;;
1591;SDS011;789;51.612;7.510;2022-10-14T05:37:33;29.27;;;22.77;;
1591;SDS011;789;51.612;7.510;2022-10-14T05:40:00;27.97;;;22.27;;
1591;SDS011;789;51.612;7.510;2022-10-14T05:42:27;27.80;;;21.57;;
1591;SDS011;789;51.612;7.510;2022-10-14T05:44:53;28.00;;;23.33;;
1591;SDS011;789;51.612;7.510;2022-10-14T05:47:20;26.43;;;20.63;;
1591;SDS011;789;51.612;7.510;2022-10-14T05:49:47;27.93;;;21.90;;
1591;SDS011;789;51.612;7.510;2022-10-14T05:52:14;29.77;;;22.07;;
1591;SDS011;789;51.612;7.510;2022-10-14T05:54:42;31.10;;;24.47;;
1591;SDS011;789;51.612;7.510;2022-10-14T05:57:09;26.30;;;22.60;;
1591;SDS011;789;51.612;7.510;2022-10-14T05:59:35;22.87;;;20.40;;
1591;SDS011;789;51.612;7.510;2022-10-14T06:02:02;26.90;;;21.37;;
1591;SDS011;789;51.612;7.510;2022-10-14T06:04:29;22.70;;;19.43;;
1591;SDS011;789;51.612;7.510;2022-10-14T06:06:55;19.90;;;17.80;;
1591;SDS011;789;51.612;7.510;2022-10-14T06:09:24;20.60;;;18.03;;
1591;SDS011;789;51.612;7.510;2022-10-14T06:11:52;21.97;;;18.80;;
1591;SDS011;789;51.612;7.510;2022-10-14T06:14:18;20.47;;;17.00;;
1591;SDS011;789;51.612;7.510;2022-10-14T06:16:47;20.43;;;16.80;;
1591;SDS011;789;51.612;7.510;2022-10-14T06:19:15;19.50;;;17.50;;
1591;SDS011;789;51.612;7.510;2022-10-14T06:21:41;20.90;;;17.80;;
1591;SDS011;789;51.612;7.510;2022-10-14T06:24:08;20.67;;;18.00;;
1591;SDS011;789;51.612;7.510;2022-10-14T06:26:35;24.70;;;18.00;;
1591;SDS011;789;51.612;7.510;2022-10-14T06:29:03;19.00;;;16.40;;
1591;SDS011;789;51.612;7.510;2022-10-14T06:31:31;20.70;;;18.37;;
1591;SDS011;789;51.612;7.510;2022-10-14T06:33:57;20.43;;;18.20;;
1591;SDS011;789;51.612;7.510;2022-10-14T06:36:24;18.83;;;16.70;;
1591;SDS011;789;51.612;7.510;2022-10-14T06:38:51;19.10;;;16.20;;
1591;SDS011;789;51.612;7.510;2022-10-14T06:41:19;17.73;;;15.27;;
1591;SDS011;789;51.612;7.510;2022-10-14T06:43:46;17.90;;;16.00;;
1591;SDS011;789;51.612;7.510;2022-10-14T06:46:14;17.07;;;15.27;;
1591;SDS011;789;51.612;7.510;2022-10-14T06:48:40;17.03;;;15.23;;
1591;SDS011;789;51.612;7.510;2022-10-14T06:51:07;14.90;;;13.40;;
1591;SDS011;789;51.612;7.510;2022-10-14T06:53:34;16.50;;;14.67;;
1591;SDS011;789;51.612;7.510;2022-10-14T06:56:02;16.93;;;13.97;;
1591;SDS011;789;51.612;7.510;2022-10-14T06:58:30;13.27;;;11.93;;
1591;SDS011;789;51.612;7.510;2022-10-14T07:00:59;13.70;;;12.30;;
1591;SDS011;789;51.612;7.510;2022-10-14T07:03:27;12.50;;;11.30;;
1591;SDS011;789;51.612;7.510;2022-10-14T07:05:54;12.53;;;11.40;;
1591;SDS011;789;51.612;7.510;2022-10-14T07:08:21;14.20;;;12.30;;
1591;SDS011;789;51.612;7.510;2022-10-14T07:10:47;11.90;;;10.80;;
1591;SDS011;789;51.612;7.510;2022-10-14T07:13:14;11.23;;;10.23;;
1591;SDS011;789;51.612;7.510;2022-10-14T07:15:41;10.53;;;9.63;;
1591;SDS011;789;51.612;7.510;2022-10-14T07:18:07;11.03;;;10.03;;
1591;SDS011;789;51.612;7.510;2022-10-14T07:20:35;9.50;;;8.70;;
1591;SDS011;789;51.612;7.510;2022-10-14T07:23:02;10.00;;;9.10;;
1591;SDS011;789;51.612;7.510;2022-10-14T07:25:29;10.90;;;8.50;;
1591;SDS011;789;51.612;7.510;2022-10-14T07:27:56;9.57;;;8.60;;
1591;SDS011;789;51.612;7.510;2022-10-14T07:30:23;9.83;;;8.93;;
1591;SDS011;789;51.612;7.510;2022-10-14T07:32:50;9.90;;;9.10;;
1591;SDS011;789;51.612;7.510;2022-10-14T07:35:17;9.03;;;8.33;;
1591;SDS011;789;51.612;7.510;2022-10-14T07:37:45;8.80;;;8.00;;
1591;SDS011;789;51.612;7.510;2022-10-14T07:40:14;9.63;;;8.20;;
1591;SDS011;789;51.612;7.510;2022-10-14T07:42:41;10.10;;;9.20;;
1591;SDS011;789;51.612;7.510;2022-10-14T07:45:08;11.53;;;10.43;;
1591;SDS011;789;51.612;7.510;2022-10-14T07:47:40;10.30;;;9.27;;
1591;SDS011;789;51.612;7.510;2022-10-14T07:50:07;10.17;;;9.27;;
1591;SDS011;789;51.612;7.510;2022-10-14T07:52:34;9.30;;;8.50;;
1591;SDS011;789;51.612;7.510;2022-10-14T07:55:03;10.80;;;9.80;;
1591;SDS011;789;51.612;7.510;2022-10-14T07:57:30;11.20;;;10.10;;
1591;SDS011;789;51.612;7.510;2022-10-14T07:59:57;10.23;;;9.33;;
1591;SDS011;789;51.612;7.510;2022-10-14T08:02:24;10.60;;;9.60;;
1591;SDS011;789;51.612;7.510;2022-10-14T08:04:50;10.07;;;9.17;;
1591;SDS011;789;51.612;7.510;2022-10-14T08:07:19;8.83;;;7.47;;
1591;SDS011;789;51.612;7.510;2022-10-14T08:09:46;8.27;;;7.47;;
1591;SDS011;789;51.612;7.510;2022-10-14T08:12:14;6.90;;;6.30;;
1591;SDS011;789;51.612;7.510;2022-10-14T08:14:41;7.23;;;6.37;;
1591;SDS011;789;51.612;7.510;2022-10-14T08:17:08;8.03;;;6.40;;
1591;SDS011;789;51.612;7.510;2022-10-14T08:19:35;6.70;;;6.10;;
1591;SDS011;789;51.612;7.510;2022-10-14T08:22:01;6.43;;;5.93;;
1591;SDS011;789;51.612;7.510;2022-10-14T08:24:28;6.37;;;5.77;;
1591;SDS011;789;51.612;7.510;2022-10-14T08:26:55;6.73;;;5.90;;
1591;SDS011;789;51.612;7.510;2022-10-14T08:29:26;6.70;;;5.53;;
1591;SDS011;789;51.612;7.510;2022-10-14T08:31:53;6.23;;;5.47;;
1591;SDS011;789;51.612;7.510;2022-10-14T08:34:19;4.57;;;4.13;;
1591;SDS011;789;51.612;7.510;2022-10-14T08:36:48;4.67;;;4.27;;
1591;SDS011;789;51.612;7.510;2022-10-14T08:39:16;5.00;;;4.00;;
1591;SDS011;789;51.612;7.510;2022-10-14T08:41:53;4.10;;;3.70;;
1591;SDS011;789;51.612;7.510;2022-10-14T08:44:34;3.80;;;3.50;;
1591;SDS011;789;51.612;7.510;2022-10-14T08:47:08;4.17;;;3.30;;
1591;SDS011;789;51.612;7.510;2022-10-14T08:49:42;4.03;;;3.70;;
1591;SDS011;789;51.612;7.510;2022-10-14T08:52:17;4.50;;;3.90;;
1591;SDS011;789;51.612;7.510;2022-10-14T08:54:50;4.70;;;4.03;;
1591;SDS011;789;51.612;7.510;2022-10-14T08:57:21;4.53;;;4.13;;
1591;SDS011;789;51.612;7.510;2022-10-14T08:59:53;4.00;;;3.70;;
1591;SDS011;789;51.612;7.510;2022-10-14T09:02:23;4.40;;;4.00;;
1591;SDS011;789;51.612;7.510;2022-10-14T09:04:59;4.87;;;4.37;;
1591;SDS011;789;51.612;7.510;2022-10-14T09:07:27;7.43;;;4.90;;
1591;SDS011;789;51.612;7.510;2022-10-14T09:09:56;5.00;;;4.30;;
1591;SDS011;789;51.612;7.510;2022-10-14T09:12:27;5.13;;;4.67;;
1591;SDS011;789;51.612;7.510;2022-10-14T09:15:01;5.30;;;4.43;;
1591;SDS011;789;51.612;7.510;2022-10-14T09:17:33;4.50;;;4.10;;
1591;SDS011;789;51.612;7.510;2022-10-14T09:20:04;5.00;;;4.50;;
1591;SDS011;789;51.612;7.510;2022-10-14T09:22:41;7.40;;;4.83;;
1591;SDS011;789;51.612;7.510;2022-10-14T09:25:11;4.90;;;4.27;;
1591;SDS011;789;51.612;7.510;2022-10-14T09:27:39;4.03;;;3.73;;
1591;SDS011;789;51.612;7.510;2022-10-14T09:30:12;4.53;;;4.13;;
1591;SDS011;789;51.612;7.510;2022-10-14T09:32:40;4.93;;;3.93;;
1591;SDS011;789;51.612;7.510;2022-10-14T09:35:12;3.90;;;3.60;;
1591;SDS011;789;51.612;7.510;2022-10-14T09:37:40;4.67;;;4.27;;
1591;SDS011;789;51.612;7.510;2022-10-14T09:40:09;3.70;;;3.40;;
1591;SDS011;789;51.612;7.510;2022-10-14T09:42:43;3.97;;;3.60;;
1591;SDS011;789;51.612;7.510;2022-10-14T09:45:16;5.10;;;3.60;;
1591;SDS011;789;51.612;7.510;2022-10-14T09:47:49;3.33;;;3.10;;
1591;SDS011;789;51.612;7.510;2022-10-14T09:50:21;3.87;;;3.47;;
1591;SDS011;789;51.612;7.510;2022-10-14T09:52:51;3.20;;;2.80;;
1591;SDS011;789;51.612;7.510;2022-10-14T09:55:20;2.70;;;2.50;;
1591;SDS011;789;51.612;7.510;2022-10-14T09:57:54;4.90;;;2.40;;
1591;SDS011;789;51.612;7.510;2022-10-14T10:00:29;6.00;;;2.80;;
1591;SDS011;789;51.612;7.510;2022-10-14T10:02:57;3.17;;;2.60;;
1591;SDS011;789;51.612;7.510;2022-10-14T10:05:25;3.03;;;2.73;;
1591;SDS011;789;51.612;7.510;2022-10-14T10:08:00;2.90;;;2.50;;
1591;SDS011;789;51.612;7.510;2022-10-14T10:10:35;3.93;;;2.37;;
1591;SDS011;789;51.612;7.510;2022-10-14T10:13:02;3.03;;;2.20;;
1591;SDS011;789;51.612;7.510;2022-10-14T10:15:31;3.67;;;2.17;;
1591;SDS011;789;51.612;7.510;2022-10-14T10:17:58;3.53;;;2.17;;
1591;SDS011;789;51.612;7.510;2022-10-14T10:20:25;5.13;;;2.13;;
1591;SDS011;789;51.612;7.510;2022-10-14T10:22:56;2.20;;;1.53;;
1591;SDS011;789;51.612;7.510;2022-10-14T10:25:23;3.43;;;3.13;;
1591;SDS011;789;51.612;7.510;2022-10-14T10:27:52;2.00;;;1.60;;
1591;SDS011;789;51.612;7.510;2022-10-14T10:30:23;5.10;;;1.60;;
1591;SDS011;789;51.612;7.510;2022-10-14T10:32:56;3.63;;;1.80;;
1591;SDS011;789;51.612;7.510;2022-10-14T10:35:35;3.60;;;2.77;;
1591;SDS011;789;51.612;7.510;2022-10-14T10:38:18;11.03;;;3.70;;
1591;SDS011;789;51.612;7.510;2022-10-14T10:40:55;5.33;;;2.57;;
1591;SDS011;789;51.612;7.510;2022-10-14T10:43:42;2.27;;;1.63;;
1591;SDS011;789;51.612;7.510;2022-10-14T10:49:30;2.63;;;1.77;;
1591;SDS011;789;51.612;7.510;2022-10-14T10:52:08;1.50;;;1.40;;
1591;SDS011;789;51.612;7.510;2022-10-14T10:54:44;4.23;;;2.00;;
1591;SDS011;789;51.612;7.510;2022-10-14T10:57:19;5.53;;;1.80;;
1591;SDS011;789;51.612;7.510;2022-10-14T10:59:57;2.17;;;1.60;;
1591;SDS011;789;51.612;7.510;2022-10-14T11:02:36;5.73;;;1.97;;
1591;SDS011;789;51.612;7.510;2022-10-14T11:05:26;5.43;;;1.80;;
1591;SDS011;789;51.612;7.510;2022-10-14T11:08:24;2.53;;;1.87;;
1591;SDS011;789;51.612;7.510;2022-10-14T11:11:20;6.33;;;1.57;;
1591;SDS011;789;51.612;7.510;2022-10-14T11:14:12;2.60;;;1.40;;
1591;SDS011;789;51.612;7.510;2022-10-14T11:16:49;1.43;;;1.33;;
1591;SDS011;789;51.612;7.510;2022-10-14T11:19:27;2.00;;;1.53;;
1591;SDS011;789;51.612;7.510;2022-10-14T11:22:01;2.70;;;1.20;;
1591;SDS011;789;51.612;7.510;2022-10-14T11:24:38;4.13;;;1.73;;
1591;SDS011;789;51.612;7.510;2022-10-14T11:27:09;5.00;;;1.40;;
1591;SDS011;789;51.612;7.510;2022-10-14T11:32:42;1.30;;;1.20;;
1591;SDS011;789;51.612;7.510;2022-10-14T11:35:21;5.00;;;1.60;;
1591;SDS011;789;51.612;7.510;2022-10-14T11:37:57;4.83;;;1.50;;
1591;SDS011;789;51.612;7.510;2022-10-14T11:40:36;8.47;;;1.60;;
1591;SDS011;789;51.612;7.510;2022-10-14T11:43:11;7.23;;;1.77;;
1591;SDS011;789;51.612;7.510;2022-10-14T11:45:51;2.50;;;1.80;;
1591;SDS011;789;51.612;7.510;2022-10-14T11:48:23;2.57;;;2.07;;
1591;SDS011;789;51.612;7.510;2022-10-14T11:50:54;2.43;;;2.10;;
1591;SDS011;789;51.612;7.510;2022-10-14T11:53:29;2.70;;;2.13;;
1591;SDS011;789;51.612;7.510;2022-10-14T11:56:07;5.17;;;2.73;;
1591;SDS011;789;51.612;7.510;2022-10-14T11:58:40;2.37;;;1.97;;
1591;SDS011;789;51.612;7.510;2022-10-14T12:01:10;3.50;;;2.50;;
1591;SDS011;789;51.612;7.510;2022-10-14T12:03:41;3.00;;;2.60;;
1591;SDS011;789;51.612;7.510;2022-10-14T12:06:17;6.80;;;3.17;;
1591;SDS011;789;51.612;7.510;2022-10-14T12:08:49;5.63;;;3.10;;
1591;SDS011;789;51.612;7.510;2022-10-14T12:11:23;3.40;;;3.10;;
1591;SDS011;789;51.612;7.510;2022-10-14T12:13:55;4.60;;;3.60;;
1591;SDS011;789;51.612;7.510;2022-10-14T12:16:28;4.03;;;3.63;;
1591;SDS011;789;51.612;7.510;2022-10-14T12:18:56;5.47;;;3.40;;
1591;SDS011;789;51.612;7.510;2022-10-14T12:21:25;4.30;;;3.90;;
1591;SDS011;789;51.612;7.510;2022-10-14T12:23:58;5.27;;;3.80;;
1591;SDS011;789;51.612;7.510;2022-10-14T12:26:38;4.73;;;3.70;;
1591;SDS011;789;51.612;7.510;2022-10-14T12:29:15;5.50;;;4.90;;
1591;SDS011;789;51.612;7.510;2022-10-14T12:31:46;7.23;;;4.60;;
1591;SDS011;789;51.612;7.510;2022-10-14T12:34:22;6.40;;;5.40;;
1591;SDS011;789;51.612;7.510;2022-10-14T12:36:54;7.40;;;5.70;;
1591;SDS011;789;51.612;7.510;2022-10-14T12:39:26;6.40;;;5.27;;
1591;SDS011;789;51.612;7.510;2022-10-14T12:41:58;8.43;;;7.57;;
1591;SDS011;789;51.612;7.510;2022-10-14T12:44:28;8.07;;;6.10;;
1591;SDS011;789;51.612;7.510;2022-10-14T12:47:00;8.37;;;7.50;;
1591;SDS011;789;51.612;7.510;2022-10-14T12:49:29;16.83;;;10.83;;
1591;SDS011;789;51.612;7.510;2022-10-14T12:51:59;9.33;;;8.27;;
1591;SDS011;789;51.612;7.510;2022-10-14T12:54:29;11.43;;;9.60;;
1591;SDS011;789;51.612;7.510;2022-10-14T12:56:57;11.93;;;9.10;;
1591;SDS011;789;51.612;7.510;2022-10-14T12:59:28;8.07;;;6.87;;
1591;SDS011;789;51.612;7.510;2022-10-14T13:01:57;9.83;;;7.47;;
1591;SDS011;789;51.612;7.510;2022-10-14T13:04:28;9.77;;;6.20;;
1591;SDS011;789;51.612;7.510;2022-10-14T13:07:12;22.87;;;13.60;;
1591;SDS011;789;51.612;7.510;2022-10-14T13:19:43;12.10;;;10.00;;
1591;SDS011;789;51.612;7.510;2022-10-14T13:25:09;9.13;;;7.73;;
1591;SDS011;789;51.612;7.510;2022-10-14T13:27:46;9.77;;;6.17;;
1591;SDS011;789;51.612;7.510;2022-10-14T13:30:22;18.30;;;12.63;;
1591;SDS011;789;51.612;7.510;2022-10-14T13:32:56;30.50;;;19.50;;
1591;SDS011;789;51.612;7.510;2022-10-14T13:35:28;30.00;;;19.27;;
1591;SDS011;789;51.612;7.510;2022-10-14T13:37:59;27.00;;;18.17;;
1591;SDS011;789;51.612;7.510;2022-10-14T13:40:29;29.00;;;19.57;;
1591;SDS011;789;51.612;7.510;2022-10-14T13:42:59;16.53;;;13.70;;
1591;SDS011;789;51.612;7.510;2022-10-14T13:45:28;10.57;;;9.57;;
1591;SDS011;789;51.612;7.510;2022-10-14T13:47:59;8.97;;;8.17;;
1591;SDS011;789;51.612;7.510;2022-10-14T13:50:30;10.90;;;9.37;;
1591;SDS011;789;51.612;7.510;2022-10-14T13:53:02;13.83;;;9.77;;
1591;SDS011;789;51.612;7.510;2022-10-14T13:55:30;12.43;;;9.93;;
1591;SDS011;789;51.612;7.510;2022-10-14T13:58:00;11.70;;;9.80;;
1591;SDS011;789;51.612;7.510;2022-10-14T14:00:29;11.47;;;10.27;;
1591;SDS011;789;51.612;7.510;2022-10-14T14:02:57;11.30;;;9.97;;
1591;SDS011;789;51.612;7.510;2022-10-14T14:05:24;12.27;;;10.80;;
1591;SDS011;789;51.612;7.510;2022-10-14T14:07:53;11.63;;;10.03;;
1591;SDS011;789;51.612;7.510;2022-10-14T14:10:21;10.57;;;9.40;;
1591;SDS011;789;51.612;7.510;2022-10-14T14:12:49;12.07;;;8.77;;
1591;SDS011;789;51.612;7.510;2022-10-14T14:15:18;11.23;;;8.40;;
1591;SDS011;789;51.612;7.510;2022-10-14T14:17:48;11.00;;;10.00;;
1591;SDS011;789;51.612;7.510;2022-10-14T14:20:17;10.63;;;8.60;;
1591;SDS011;789;51.612;7.510;2022-10-14T14:22:47;17.03;;;9.33;;
1591;SDS011;789;51.612;7.510;2022-10-14T14:25:23;11.03;;;9.93;;
1591;SDS011;789;51.612;7.510;2022-10-14T14:27:51;11.77;;;8.23;;
1591;SDS011;789;51.612;7.510;2022-10-14T14:30:22;11.43;;;8.53;;
1591;SDS011;789;51.612;7.510;2022-10-14T14:32:53;9.63;;;8.73;;
1591;SDS011;789;51.612;7.510;2022-10-14T14:35:22;9.60;;;8.00;;
1591;SDS011;789;51.612;7.510;2022-10-14T14:37:49;9.10;;;8.20;;
1591;SDS011;789;51.612;7.510;2022-10-14T14:40:19;10.03;;;9.03;;
1591;SDS011;789;51.612;7.510;2022-10-14T14:42:49;14.20;;;10.97;;
1591;SDS011;789;51.612;7.510;2022-10-14T14:45:18;14.83;;;11.90;;
1591;SDS011;789;51.612;7.510;2022-10-14T14:47:50;16.83;;;12.60;;
1591;SDS011;789;51.612;7.510;2022-10-14T14:50:20;18.77;;;12.93;;
1591;SDS011;789;51.612;7.510;2022-10-14T14:52:51;11.30;;;10.20;;
1591;SDS011;789;51.612;7.510;2022-10-14T14:55:34;13.83;;;12.40;;
1591;SDS011;789;51.612;7.510;2022-10-14T14:58:05;13.93;;;11.00;;
1591;SDS011;789;51.612;7.510;2022-10-14T15:00:43;11.93;;;10.77;;
1591;SDS011;789;51.612;7.510;2022-10-14T15:03:11;14.90;;;11.10;;
1591;SDS011;789;51.612;7.510;2022-10-14T15:05:38;14.90;;;9.43;;
1591;SDS011;789;51.612;7.510;2022-10-14T15:08:10;8.70;;;7.80;;
1591;SDS011;789;51.612;7.510;2022-10-14T15:10:45;13.00;;;8.17;;
1591;SDS011;789;51.612;7.510;2022-10-14T15:13:25;10.03;;;8.30;;
1591;SDS011;789;51.612;7.510;2022-10-14T15:15:53;10.30;;;8.17;;
1591;SDS011;789;51.612;7.510;2022-10-14T15:18:21;8.87;;;7.97;;
1591;SDS011;789;51.612;7.510;2022-10-14T15:21:01;13.40;;;8.97;;
1591;SDS011;789;51.612;7.510;2022-10-14T15:23:36;9.33;;;7.60;;
1591;SDS011;789;51.612;7.510;2022-10-14T15:26:04;9.00;;;8.10;;
1591;SDS011;789;51.612;7.510;2022-10-14T15:29:00;11.80;;;7.80;;
1591;SDS011;789;51.612;7.510;2022-10-14T15:31:29;10.90;;;8.73;;
1591;SDS011;789;51.612;7.510;2022-10-14T15:33:55;11.53;;;9.17;;
1591;SDS011;789;51.612;7.510;2022-10-14T15:36:22;11.83;;;9.70;;
1591;SDS011;789;51.612;7.510;2022-10-14T15:38:53;15.57;;;10.27;;
1591;SDS011;789;51.612;7.510;2022-10-14T15:41:22;15.00;;;11.40;;
1591;SDS011;789;51.612;7.510;2022-10-14T15:43:50;21.30;;;14.60;;
1591;SDS011;789;51.612;7.510;2022-10-14T15:46:17;19.17;;;14.40;;
1591;SDS011;789;51.612;7.510;2022-10-14T15:49:02;14.60;;;11.43;;
1591;SDS011;789;51.612;7.510;2022-10-14T15:51:30;14.87;;;10.33;;
1591;SDS011;789;51.612;7.510;2022-10-14T15:53:57;8.87;;;7.03;;